createdAt,value
2023-03-05T00:01:57.459Z,3.90
2023-03-05T00:04:25.068Z,4.00
2023-03-05T00:06:52.733Z,3.00
2023-03-05T00:09:20.215Z,4.20
2023-03-05T00:11:47.826Z,3.30
2023-03-05T00:14:15.404Z,3.70
2023-03-05T00:16:42.934Z,3.70
2023-03-05T00:19:10.521Z,3.00
2023-03-05T00:21:38.461Z,4.50
2023-03-05T00:24:06.009Z,3.30
2023-03-05T00:26:34.610Z,3.60
2023-03-05T00:29:02.188Z,3.60
2023-03-05T00:31:33.959Z,3.50
2023-03-05T00:34:01.603Z,3.10
2023-03-05T00:36:29.091Z,4.00
2023-03-05T00:38:56.744Z,3.70
2023-03-05T00:41:24.347Z,4.80
2023-03-05T00:43:51.866Z,4.10
2023-03-05T00:46:19.518Z,4.40
2023-03-05T00:48:47.011Z,4.50
2023-03-05T00:51:14.763Z,4.00
2023-03-05T00:53:42.443Z,5.60
2023-03-05T00:56:09.945Z,5.20
2023-03-05T00:58:37.459Z,4.20
2023-03-05T01:01:04.963Z,2.60
2023-03-05T01:03:32.546Z,3.50
2023-03-05T01:06:00.116Z,3.00
2023-03-05T01:08:27.621Z,4.10
2023-03-05T01:10:55.172Z,3.50
2023-03-05T01:13:22.860Z,4.40
2023-03-05T01:15:51.137Z,2.60
2023-03-05T01:18:18.766Z,2.20
2023-03-05T01:20:46.320Z,3.40
2023-03-05T01:23:13.826Z,3.20
2023-03-05T01:25:41.426Z,2.90
2023-03-05T01:28:08.991Z,3.10
2023-03-05T01:30:36.421Z,2.50
2023-03-05T01:33:04.113Z,2.60
2023-03-05T01:35:31.690Z,2.70
2023-03-05T01:37:59.166Z,2.80
2023-03-05T01:40:27.101Z,3.10
2023-03-05T01:42:54.615Z,2.50
2023-03-05T01:45:22.121Z,3.20
2023-03-05T01:47:49.625Z,3.00
2023-03-05T01:50:17.229Z,2.40
2023-03-05T01:52:44.786Z,3.20
2023-03-05T01:55:12.404Z,2.60
2023-03-05T01:57:39.881Z,3.30
2023-03-05T02:00:07.396Z,2.90
2023-03-05T02:02:34.978Z,3.40
2023-03-05T02:05:02.493Z,3.70
2023-03-05T02:07:29.984Z,2.70
2023-03-05T02:09:57.514Z,3.80
2023-03-05T02:12:25.062Z,3.60
2023-03-05T02:14:59.101Z,3.00
2023-03-05T02:17:26.633Z,4.20
2023-03-05T02:19:54.088Z,3.50
2023-03-05T02:22:21.635Z,3.60
2023-03-05T02:24:49.180Z,4.10
2023-03-05T02:27:16.638Z,3.20
2023-03-05T02:29:44.147Z,3.50
2023-03-05T02:32:11.696Z,4.30
2023-03-05T02:34:39.296Z,3.70
2023-03-05T02:37:09.157Z,3.90
2023-03-05T02:39:36.645Z,3.30
2023-03-05T02:42:04.245Z,3.40
2023-03-05T02:44:31.791Z,4.00
2023-03-05T02:46:59.286Z,2.70
2023-03-05T02:49:26.760Z,2.40
2023-03-05T02:51:54.292Z,2.70
2023-03-05T02:54:21.761Z,3.10
2023-03-05T02:56:49.282Z,3.20
2023-03-05T02:59:16.899Z,2.90
2023-03-05T03:01:44.364Z,3.40
2023-03-05T03:04:11.843Z,2.80
2023-03-05T03:06:39.354Z,3.10
2023-03-05T03:09:06.841Z,3.20
2023-03-05T03:11:34.372Z,2.90
2023-03-05T03:14:01.923Z,3.60
2023-03-05T03:16:29.394Z,2.70
2023-03-05T03:18:56.932Z,4.20
2023-03-05T03:21:24.512Z,3.40
2023-03-05T03:23:52.008Z,3.60
2023-03-05T03:26:19.459Z,4.60
2023-03-05T03:28:47.005Z,4.20
2023-03-05T03:31:14.499Z,4.20
2023-03-05T03:33:42.201Z,4.60
2023-03-05T03:36:09.726Z,3.70
2023-03-05T03:38:37.253Z,4.00
2023-03-05T03:41:04.724Z,3.70
2023-03-05T03:43:32.424Z,4.50
2023-03-05T03:45:59.912Z,5.30
2023-03-05T03:48:27.620Z,4.00
2023-03-05T03:50:55.341Z,4.80
2023-03-05T03:53:22.788Z,5.10
2023-03-05T03:55:50.385Z,4.60
2023-03-05T03:58:18.061Z,4.10
2023-03-05T04:00:45.543Z,3.70
2023-03-05T04:03:13.057Z,5.10
2023-03-05T04:05:40.530Z,4.60
2023-03-05T04:08:12.043Z,5.00
2023-03-05T04:10:39.936Z,5.50
2023-03-05T04:13:07.454Z,5.40
2023-03-05T04:15:35.090Z,4.60
2023-03-05T04:18:02.592Z,5.40
2023-03-05T04:20:30.132Z,4.90
2023-03-05T04:22:57.618Z,10.30
2023-03-05T04:25:25.086Z,10.90
2023-03-05T04:27:52.650Z,7.50
2023-03-05T04:30:20.336Z,5.40
2023-03-05T04:32:47.811Z,5.80
2023-03-05T04:35:15.324Z,5.40
2023-03-05T04:37:42.851Z,5.00
2023-03-05T04:40:10.359Z,6.00
2023-03-05T04:42:37.855Z,6.00
2023-03-05T04:45:06.768Z,5.10
2023-03-05T04:47:34.314Z,4.40
2023-03-05T04:50:02.228Z,5.20
2023-03-05T04:52:29.861Z,4.20
2023-03-05T04:54:57.339Z,5.10
2023-03-05T04:57:24.961Z,4.40
2023-03-05T04:59:52.482Z,4.30
2023-03-05T05:02:19.988Z,5.10
2023-03-05T05:04:47.734Z,5.40
2023-03-05T05:07:15.167Z,5.80
2023-03-05T05:09:42.956Z,5.40
2023-03-05T05:12:10.668Z,6.00
2023-03-05T05:14:38.171Z,5.40
2023-03-05T05:17:05.806Z,4.10
2023-03-05T05:19:33.396Z,3.80
2023-03-05T05:22:00.938Z,4.30
2023-03-05T05:24:28.476Z,3.90
2023-03-05T05:26:56.040Z,4.30
2023-03-05T05:29:23.615Z,5.10
2023-03-05T05:31:51.168Z,5.30
2023-03-05T05:34:18.682Z,5.10
2023-03-05T05:36:46.220Z,4.00
2023-03-05T05:39:13.679Z,4.80
2023-03-05T05:41:41.222Z,4.10
2023-03-05T05:44:08.783Z,4.30
2023-03-05T05:46:36.518Z,4.10
2023-03-05T05:49:04.090Z,5.00
2023-03-05T05:51:31.638Z,5.40
2023-03-05T05:53:59.579Z,4.50
2023-03-05T05:56:27.491Z,4.60
2023-03-05T05:58:55.065Z,5.00
2023-03-05T06:01:22.722Z,5.60
2023-03-05T06:03:50.205Z,5.00
2023-03-05T06:06:17.773Z,3.50
2023-03-05T06:08:45.225Z,6.10
2023-03-05T06:11:12.843Z,6.10
2023-03-05T06:13:40.408Z,6.50
2023-03-05T06:16:08.116Z,5.40
2023-03-05T06:18:35.730Z,6.10
2023-03-05T06:21:03.192Z,7.40
2023-03-05T06:23:30.680Z,4.40
2023-03-05T06:25:58.299Z,5.80
2023-03-05T06:28:25.783Z,4.80
2023-03-05T06:30:53.349Z,3.80
2023-03-05T06:33:20.925Z,4.80
2023-03-05T06:35:48.448Z,4.50
2023-03-05T06:38:15.991Z,5.50
2023-03-05T06:40:43.670Z,5.40
2023-03-05T06:43:11.187Z,5.60
2023-03-05T06:45:38.748Z,4.00
2023-03-05T06:48:06.653Z,4.60
2023-03-05T06:50:34.140Z,3.70
2023-03-05T06:53:01.624Z,4.80
2023-03-05T06:55:29.184Z,4.60
2023-03-05T06:57:56.626Z,5.20
2023-03-05T07:00:25.133Z,5.00
2023-03-05T07:02:52.872Z,4.90
2023-03-05T07:05:20.409Z,5.50
2023-03-05T07:07:47.937Z,7.10
2023-03-05T07:10:15.455Z,5.00
2023-03-05T07:12:43.670Z,5.50
2023-03-05T07:15:11.253Z,5.90
2023-03-05T07:17:38.796Z,5.40
2023-03-05T07:20:06.279Z,5.00
2023-03-05T07:22:33.711Z,7.00
2023-03-05T07:25:01.294Z,6.10
2023-03-05T07:27:28.763Z,7.00
2023-03-05T07:29:56.235Z,7.40
2023-03-05T07:32:23.820Z,6.40
2023-03-05T07:34:51.360Z,5.50
2023-03-05T07:37:18.807Z,4.60
2023-03-05T07:39:47.267Z,4.40
2023-03-05T07:42:14.896Z,4.80
2023-03-05T07:44:42.385Z,4.20
2023-03-05T07:47:10.056Z,4.90
2023-03-05T07:49:39.722Z,3.20
2023-03-05T07:52:07.281Z,3.50
2023-03-05T07:54:37.936Z,3.50
2023-03-05T07:57:05.749Z,2.80
2023-03-05T07:59:33.212Z,3.60
2023-03-05T08:02:00.866Z,3.60
2023-03-05T08:04:30.038Z,2.00
2023-03-05T08:06:57.559Z,3.00
2023-03-05T08:09:25.162Z,3.30
2023-03-05T08:11:52.671Z,3.30
2023-03-05T08:14:20.430Z,3.40
2023-03-05T08:16:52.340Z,3.80
2023-03-05T08:19:19.914Z,3.30
2023-03-05T08:21:47.439Z,2.60
2023-03-05T08:24:15.173Z,3.90
2023-03-05T08:26:42.940Z,4.80
2023-03-05T08:29:10.462Z,4.20
2023-03-05T08:31:38.027Z,5.50
2023-03-05T08:34:05.631Z,4.00
2023-03-05T08:36:33.092Z,4.40
2023-03-05T08:39:00.686Z,3.40
2023-03-05T08:41:30.932Z,4.10
2023-03-05T08:43:58.374Z,3.80
2023-03-05T08:46:26.023Z,5.90
2023-03-05T08:48:53.695Z,4.00
2023-03-05T08:51:21.468Z,4.10
2023-03-05T08:53:49.222Z,3.10
2023-03-05T08:56:16.734Z,4.40
2023-03-05T08:58:44.346Z,4.90
2023-03-05T09:01:12.012Z,5.30
2023-03-05T09:03:39.461Z,5.10
2023-03-05T09:06:07.075Z,4.10
2023-03-05T09:08:34.647Z,4.80
2023-03-05T09:11:02.179Z,4.90
2023-03-05T09:13:29.735Z,5.20
2023-03-05T09:15:57.338Z,4.20
2023-03-05T09:18:24.874Z,5.40
2023-03-05T09:20:52.326Z,5.00
2023-03-05T09:23:19.997Z,4.50
2023-03-05T09:25:47.519Z,5.00
2023-03-05T09:28:14.969Z,3.00
2023-03-05T09:30:42.668Z,3.90
2023-03-05T09:33:10.185Z,4.00
2023-03-05T09:35:37.846Z,3.40
2023-03-05T09:38:05.518Z,5.70
2023-03-05T09:40:33.004Z,4.90
2023-03-05T09:43:00.445Z,6.20
2023-03-05T09:45:27.994Z,4.10
2023-03-05T09:47:55.637Z,3.90
2023-03-05T09:50:23.783Z,3.80
2023-03-05T09:52:51.768Z,3.60
2023-03-05T09:55:19.243Z,3.70
2023-03-05T09:57:46.710Z,2.60
2023-03-05T10:00:14.622Z,3.20
2023-03-05T10:02:45.267Z,3.70
2023-03-05T10:05:12.872Z,4.30
2023-03-05T10:07:40.397Z,4.30
2023-03-05T10:10:08.096Z,3.10
2023-03-05T10:12:35.597Z,3.60
2023-03-05T10:15:03.296Z,3.30
2023-03-05T10:17:30.740Z,3.10
2023-03-05T10:19:58.390Z,2.20
2023-03-05T10:22:25.983Z,3.50
2023-03-05T10:24:53.466Z,3.00
2023-03-05T10:27:21.046Z,2.60
2023-03-05T10:29:48.745Z,3.40
2023-03-05T10:32:16.266Z,3.00
2023-03-05T10:34:43.910Z,2.80
2023-03-05T10:37:11.590Z,3.00
2023-03-05T10:39:39.098Z,2.70
2023-03-05T10:42:06.548Z,2.80
2023-03-05T10:44:34.145Z,3.10
2023-03-05T10:47:01.627Z,2.20
2023-03-05T10:49:29.124Z,2.60
2023-03-05T10:51:56.677Z,2.00
2023-03-05T10:54:25.573Z,3.20
2023-03-05T10:56:53.112Z,3.10
2023-03-05T10:59:20.774Z,2.30
2023-03-05T11:01:48.367Z,2.10
2023-03-05T11:04:15.937Z,2.60
2023-03-05T11:06:45.705Z,2.40
2023-03-05T11:09:13.460Z,4.30
2023-03-05T11:11:40.984Z,2.60
2023-03-05T11:14:10.257Z,2.80
2023-03-05T11:16:37.843Z,4.90
2023-03-05T11:19:05.330Z,2.20
2023-03-05T11:21:33.030Z,3.10
2023-03-05T11:24:00.618Z,3.70
2023-03-05T11:26:28.101Z,3.20
2023-03-05T11:28:55.628Z,3.10
2023-03-05T11:31:24.352Z,2.50
2023-03-05T11:33:51.965Z,1.70
2023-03-05T11:36:19.526Z,1.90
2023-03-05T11:38:47.198Z,2.60
2023-03-05T11:41:14.888Z,3.70
2023-03-05T11:43:42.513Z,3.10
2023-03-05T11:46:10.261Z,2.20
2023-03-05T11:48:37.823Z,1.60
2023-03-05T11:51:05.313Z,1.20
2023-03-05T11:53:32.732Z,1.90
2023-03-05T11:56:00.431Z,1.70
2023-03-05T11:58:27.962Z,1.50
2023-03-05T12:00:55.484Z,1.30
2023-03-05T12:03:23.034Z,1.00
2023-03-05T12:05:50.760Z,2.10
2023-03-05T12:08:19.822Z,1.60
2023-03-05T12:10:49.341Z,1.20
2023-03-05T12:13:16.816Z,1.00
2023-03-05T12:15:44.971Z,0.90
2023-03-05T12:18:12.612Z,1.00
2023-03-05T12:20:40.174Z,1.90
2023-03-05T12:23:07.642Z,1.50
2023-03-05T12:25:35.177Z,0.90
2023-03-05T12:28:03.120Z,2.00
2023-03-05T12:30:30.542Z,3.30
2023-03-05T12:32:58.286Z,3.90
2023-03-05T12:35:25.894Z,5.30
2023-03-05T12:37:53.453Z,3.10
2023-03-05T12:40:20.959Z,1.30
2023-03-05T12:42:48.592Z,3.70
2023-03-05T12:45:16.252Z,7.00
2023-03-05T12:47:43.684Z,6.70
2023-03-05T12:50:11.310Z,1.80
2023-03-05T12:52:39.678Z,2.70
2023-03-05T12:55:07.224Z,2.30
2023-03-05T12:57:34.935Z,1.80
2023-03-05T13:00:03.160Z,2.30
2023-03-05T13:02:30.636Z,1.50
2023-03-05T13:04:58.323Z,1.50
2023-03-05T13:07:25.780Z,2.00
2023-03-05T13:09:53.808Z,1.10
2023-03-05T13:12:21.413Z,2.90
2023-03-05T13:14:49.163Z,1.80
2023-03-05T13:17:16.640Z,2.20
2023-03-05T13:19:44.162Z,2.00
2023-03-05T13:22:11.669Z,2.60
2023-03-05T13:24:39.131Z,4.60
2023-03-05T13:27:06.610Z,2.70
2023-03-05T13:29:34.077Z,3.10
2023-03-05T13:32:01.630Z,1.70
2023-03-05T13:34:37.675Z,1.70
2023-03-05T13:37:12.326Z,1.20
2023-03-05T13:39:39.816Z,1.60
2023-03-05T13:42:07.250Z,1.50
2023-03-05T13:44:34.773Z,1.90
2023-03-05T13:47:02.478Z,1.60
2023-03-05T13:49:29.966Z,1.50
2023-03-05T13:51:57.429Z,0.70
2023-03-05T13:54:25.129Z,2.00
2023-03-05T13:56:52.667Z,1.50
2023-03-05T13:59:20.374Z,2.20
2023-03-05T14:01:50.767Z,1.90
2023-03-05T14:04:18.548Z,2.10
2023-03-05T14:06:46.443Z,1.60
2023-03-05T14:09:14.272Z,2.20
2023-03-05T14:11:42.000Z,1.50
2023-03-05T14:14:09.484Z,0.80
2023-03-05T14:16:37.078Z,2.10
2023-03-05T14:19:07.306Z,1.70
2023-03-05T14:21:34.824Z,1.50
2023-03-05T14:24:02.554Z,2.30
2023-03-05T14:26:30.040Z,1.30
2023-03-05T14:28:57.588Z,2.30
2023-03-05T14:31:25.181Z,2.00
2023-03-05T14:33:52.669Z,1.80
2023-03-05T14:36:20.231Z,1.40
2023-03-05T14:38:48.212Z,1.90
2023-03-05T14:41:15.748Z,3.60
2023-03-05T14:43:43.242Z,2.50
2023-03-05T14:46:12.306Z,2.80
2023-03-05T14:48:40.891Z,3.50
2023-03-05T14:51:08.376Z,4.60
2023-03-05T14:53:36.208Z,4.80
2023-03-05T14:56:03.739Z,3.10
2023-03-05T14:58:32.347Z,3.20
2023-03-05T15:01:00.199Z,2.90
2023-03-05T15:03:28.055Z,3.20
2023-03-05T15:05:55.772Z,5.00
2023-03-05T15:08:23.416Z,3.90
2023-03-05T15:10:51.040Z,4.30
2023-03-05T15:13:18.603Z,3.80
2023-03-05T15:15:46.168Z,5.90
2023-03-05T15:18:13.733Z,7.00
2023-03-05T15:20:41.177Z,6.40
2023-03-05T15:23:08.734Z,3.20
2023-03-05T15:25:36.340Z,2.30
2023-03-05T15:28:03.871Z,2.20
2023-03-05T15:30:31.461Z,2.20
2023-03-05T15:32:59.075Z,3.00
2023-03-05T15:35:26.605Z,2.60
2023-03-05T15:37:54.133Z,1.40
2023-03-05T15:40:21.647Z,2.50
2023-03-05T15:42:49.152Z,2.70
2023-03-05T15:45:16.633Z,2.40
2023-03-05T15:47:44.239Z,2.00
2023-03-05T15:50:11.781Z,2.20
2023-03-05T15:52:39.311Z,2.10
2023-03-05T15:55:07.187Z,2.50
2023-03-05T15:57:34.705Z,4.00
2023-03-05T16:00:02.333Z,2.70
2023-03-05T16:02:30.091Z,2.30
2023-03-05T16:04:57.632Z,2.40
2023-03-05T16:07:25.219Z,3.90
2023-03-05T16:09:52.758Z,5.10
2023-03-05T16:12:20.305Z,6.60
2023-03-05T16:14:48.850Z,3.70
2023-03-05T16:17:17.614Z,3.80
2023-03-05T16:19:45.162Z,2.80
2023-03-05T16:22:12.749Z,2.40
2023-03-05T16:24:40.375Z,2.20
2023-03-05T16:27:08.087Z,2.70
2023-03-05T16:29:35.719Z,2.30
2023-03-05T16:32:04.777Z,5.50
2023-03-05T16:34:34.644Z,3.10
2023-03-05T16:37:04.768Z,2.30
2023-03-05T16:39:32.540Z,2.10
2023-03-05T16:42:00.256Z,2.00
2023-03-05T16:44:28.018Z,2.10
2023-03-05T16:46:56.571Z,2.50
2023-03-05T16:49:24.396Z,3.00
2023-03-05T16:51:52.742Z,2.70
2023-03-05T16:54:22.065Z,2.70
2023-03-05T16:56:50.196Z,3.60
2023-03-05T16:59:20.921Z,4.00
2023-03-05T17:01:51.915Z,3.10
2023-03-05T17:04:20.250Z,3.10
2023-03-05T17:06:49.397Z,3.60
2023-03-05T17:09:19.272Z,2.60
2023-03-05T17:11:46.770Z,2.60
2023-03-05T17:14:14.308Z,2.30
2023-03-05T17:16:41.895Z,2.80
2023-03-05T17:19:09.399Z,2.60
2023-03-05T17:21:36.987Z,2.30
2023-03-05T17:24:04.610Z,3.50
2023-03-05T17:26:36.476Z,5.70
2023-03-05T17:29:04.012Z,5.80
2023-03-05T17:31:31.534Z,5.00
2023-03-05T17:33:59.134Z,4.10
2023-03-05T17:36:26.955Z,3.50
2023-03-05T17:38:54.554Z,2.90
2023-03-05T17:41:22.186Z,3.10
2023-03-05T17:43:49.858Z,2.90
2023-03-05T17:46:17.371Z,2.90
2023-03-05T17:48:45.102Z,2.90
2023-03-05T17:51:12.753Z,2.20
2023-03-05T17:53:40.515Z,1.80
2023-03-05T17:56:08.241Z,1.90
2023-03-05T17:58:35.982Z,1.90
2023-03-05T18:01:03.573Z,1.90
2023-03-05T18:03:31.193Z,2.40
2023-03-05T18:05:59.034Z,2.90
2023-03-05T18:08:26.544Z,3.20
2023-03-05T18:10:54.057Z,2.30
2023-03-05T18:13:21.819Z,2.50
2023-03-05T18:15:49.370Z,2.20
2023-03-05T18:18:16.932Z,2.80
2023-03-05T18:20:45.075Z,2.00
2023-03-05T18:23:13.289Z,1.80
2023-03-05T18:25:41.210Z,2.50
2023-03-05T18:28:11.406Z,2.80
2023-03-05T18:30:40.644Z,2.70
2023-03-05T18:33:12.064Z,2.70
2023-03-05T18:35:39.617Z,2.70
2023-03-05T18:38:09.544Z,3.00
2023-03-05T18:40:37.086Z,2.30
2023-03-05T18:43:05.052Z,2.30
2023-03-05T18:45:34.202Z,2.60
2023-03-05T18:48:01.873Z,2.00
2023-03-05T18:50:29.688Z,2.70
2023-03-05T18:52:57.235Z,1.80
2023-03-05T18:55:24.721Z,2.60
2023-03-05T18:57:52.426Z,2.90
2023-03-05T19:00:20.180Z,2.40
2023-03-05T19:02:47.772Z,1.90
2023-03-05T19:05:15.432Z,2.40
2023-03-05T19:07:43.203Z,2.50
2023-03-05T19:10:10.766Z,2.90
2023-03-05T19:13:11.384Z,1.90
2023-03-05T19:15:39.037Z,1.80
2023-03-05T19:18:06.662Z,1.90
2023-03-05T19:20:34.313Z,2.10
2023-03-05T19:23:01.916Z,2.30
2023-03-05T19:25:29.514Z,3.30
2023-03-05T19:27:57.323Z,2.20
2023-03-05T19:30:25.033Z,2.40
2023-03-05T19:32:52.639Z,2.50
2023-03-05T19:35:20.447Z,3.00
2023-03-05T19:37:48.027Z,2.10
2023-03-05T19:40:15.580Z,2.90
2023-03-05T19:42:44.365Z,2.80
2023-03-05T19:45:12.003Z,2.40
2023-03-05T19:47:39.951Z,2.30
2023-03-05T19:50:08.965Z,2.20
2023-03-05T19:52:36.561Z,2.30
2023-03-05T19:55:04.240Z,2.20
2023-03-05T19:57:31.848Z,2.20
2023-03-05T19:59:59.529Z,2.80
2023-03-05T20:02:27.297Z,2.00
2023-03-05T20:04:55.278Z,1.60
2023-03-05T20:07:23.643Z,1.80
2023-03-05T20:09:53.275Z,1.90
2023-03-05T20:12:21.356Z,1.60
2023-03-05T20:14:48.971Z,2.20
2023-03-05T20:17:16.643Z,1.90
2023-03-05T20:19:44.753Z,1.90
2023-03-05T20:22:12.616Z,2.00
2023-03-05T20:24:40.355Z,2.40
2023-03-05T20:27:08.235Z,2.00
2023-03-05T20:29:35.995Z,2.10
2023-03-05T20:32:03.664Z,2.30
2023-03-05T20:34:31.484Z,2.10
2023-03-05T20:36:59.483Z,2.40
2023-03-05T20:39:27.116Z,2.20
2023-03-05T20:41:54.745Z,2.70
2023-03-05T20:44:22.389Z,2.60
2023-03-05T20:47:08.875Z,2.10
2023-03-05T20:49:36.475Z,1.90
2023-03-05T20:52:04.067Z,3.70
2023-03-05T20:54:31.721Z,2.90
2023-03-05T20:56:59.238Z,2.50
2023-03-05T20:59:26.743Z,3.00
2023-03-05T21:01:54.331Z,3.00
2023-03-05T21:04:21.848Z,3.50
2023-03-05T21:06:49.370Z,3.00
2023-03-05T21:09:16.865Z,2.50
2023-03-05T21:11:44.491Z,2.30
2023-03-05T21:14:12.045Z,4.10
2023-03-05T21:16:39.704Z,2.90
2023-03-05T21:19:10.106Z,2.80
2023-03-05T21:21:39.123Z,1.80
2023-03-05T21:24:06.904Z,2.30
2023-03-05T21:26:34.687Z,3.00
2023-03-05T21:29:02.172Z,2.60
2023-03-05T21:31:29.769Z,6.30
2023-03-05T21:33:57.534Z,4.10
2023-03-05T21:36:25.128Z,2.80
2023-03-05T21:38:52.736Z,2.20
2023-03-05T21:41:20.587Z,1.90
2023-03-05T21:43:48.484Z,1.50
2023-03-05T21:46:16.064Z,1.70
2023-03-05T21:48:43.906Z,2.30
2023-03-05T21:51:20.398Z,2.80
2023-03-05T21:53:47.853Z,1.90
2023-03-05T21:56:18.095Z,2.00
2023-03-05T21:58:45.615Z,1.40
2023-03-05T22:01:13.139Z,1.70
2023-03-05T22:03:40.719Z,1.70
2023-03-05T22:06:08.290Z,1.60
2023-03-05T22:08:35.739Z,2.10
2023-03-05T22:11:03.185Z,2.30
2023-03-05T22:13:30.922Z,1.90
2023-03-05T22:15:59.626Z,1.60
2023-03-05T22:18:27.204Z,1.40
2023-03-05T22:20:54.784Z,2.20
2023-03-05T22:23:22.416Z,1.60
2023-03-05T22:25:50.012Z,1.50
2023-03-05T22:28:17.597Z,1.60
2023-03-05T22:30:45.205Z,1.80
2023-03-05T22:33:12.727Z,2.10
2023-03-05T22:35:40.493Z,1.70
2023-03-05T22:38:08.002Z,1.80
2023-03-05T22:40:37.528Z,1.70
2023-03-05T22:43:05.191Z,1.60
2023-03-05T22:45:32.690Z,1.70
2023-03-05T22:48:00.234Z,1.70
2023-03-05T22:50:27.776Z,1.50
2023-03-05T22:52:55.302Z,1.40
2023-03-05T22:55:22.827Z,1.30
2023-03-05T22:57:50.425Z,1.70
2023-03-05T23:00:17.879Z,1.90
2023-03-05T23:02:45.372Z,1.80
2023-03-05T23:05:12.996Z,1.60
2023-03-05T23:07:40.510Z,1.60
2023-03-05T23:10:07.981Z,1.70
2023-03-05T23:12:35.658Z,1.60
2023-03-05T23:15:03.296Z,1.30
2023-03-05T23:17:30.827Z,1.60
2023-03-05T23:19:58.367Z,1.90
2023-03-05T23:22:25.849Z,1.50
2023-03-05T23:24:54.403Z,1.00
2023-03-05T23:27:22.440Z,1.60
2023-03-05T23:30:12.625Z,1.60
2023-03-05T23:32:40.124Z,1.70
2023-03-05T23:35:07.577Z,1.10
2023-03-05T23:37:35.052Z,1.20
2023-03-05T23:40:02.672Z,1.40
2023-03-05T23:42:30.164Z,1.20
2023-03-05T23:44:57.660Z,1.60
2023-03-05T23:47:25.253Z,1.60
2023-03-05T23:49:52.758Z,1.20
2023-03-05T23:52:20.267Z,1.40
2023-03-05T23:54:47.812Z,1.70
2023-03-05T23:57:15.272Z,1.60
2023-03-05T23:59:42.736Z,1.50
